Time;durP1;ratioP1;P1;durP2;ratioP2;P2;SDS_P1;SDS_P2;PMS_P1;PMS_P2;Temp;Humidity;BMP_temperature;BMP_pressure;BME280_temperature;BME280_humidity;BME280_pressure;Samples;Min_cycle;Max_cycle;Signal;HPM_P1;HPM_P2
2020/12/04 00:01:39;;;;;;;7.78;2.50;;;6.30;99.90;;;;;;4990732;28;20068;-39
2020/12/04 00:04:05;;;;;;;5.78;2.85;;;6.30;99.90;;;;;;4997149;28;20556;-41
2020/12/04 00:06:33;;;;;;;5.47;1.92;;;6.30;99.90;;;;;;4982506;28;20050;-39
2020/12/04 00:09:00;;;;;;;7.40;2.85;;;6.30;99.90;;;;;;4993681;28;20053;-40
2020/12/04 00:11:26;;;;;;;5.65;2.00;;;6.30;99.90;;;;;;4990783;28;20133;-39
2020/12/04 00:13:53;;;;;;;5.85;1.95;;;6.30;99.90;;;;;;4996829;28;20030;-39
2020/12/04 00:16:19;;;;;;;5.93;2.65;;;6.30;99.90;;;;;;4992777;28;20034;-40
2020/12/04 00:18:44;;;;;;;6.78;3.15;;;6.20;99.90;;;;;;5007829;28;20069;-39
2020/12/04 00:21:12;;;;;;;5.97;3.03;;;6.20;99.90;;;;;;4993590;28;20033;-39
2020/12/04 00:23:38;;;;;;;8.52;4.25;;;6.10;99.90;;;;;;4994700;28;20427;-39
2020/12/04 00:26:03;;;;;;;5.80;2.97;;;6.10;99.90;;;;;;4991273;28;20034;-39
2020/12/04 00:28:29;;;;;;;6.43;3.60;;;6.10;99.90;;;;;;4991483;28;20022;-38
2020/12/04 00:30:55;;;;;;;5.53;2.67;;;6.00;99.90;;;;;;4992065;28;20503;-39
2020/12/04 00:33:20;;;;;;;6.55;3.55;;;6.00;99.90;;;;;;4990417;28;20125;-39
2020/12/04 00:35:46;;;;;;;4.57;2.35;;;6.00;99.90;;;;;;4992564;28;20467;-39
2020/12/04 00:38:12;;;;;;;9.23;4.80;;;5.90;99.90;;;;;;4997738;28;20033;-39
2020/12/04 00:40:37;;;;;;;9.60;4.68;;;5.90;99.90;;;;;;4991625;28;20034;-39
2020/12/04 00:43:03;;;;;;;9.07;5.75;;;5.90;99.90;;;;;;4993196;28;20483;-40
2020/12/04 00:45:28;;;;;;;8.00;5.22;;;5.80;99.90;;;;;;4992124;28;20164;-39
2020/12/04 00:47:54;;;;;;;9.05;5.00;;;5.90;99.90;;;;;;4992713;28;20117;-39
2020/12/04 00:50:19;;;;;;;9.05;5.60;;;5.90;99.90;;;;;;4992337;28;20042;-40
2020/12/04 00:52:45;;;;;;;10.77;5.65;;;5.80;99.90;;;;;;4992512;28;20030;-42
2020/12/04 00:55:11;;;;;;;10.25;6.55;;;5.70;99.90;;;;;;4991991;28;20030;-40
2020/12/04 00:57:36;;;;;;;9.30;5.18;;;5.80;99.90;;;;;;4992470;28;20034;-39
2020/12/04 01:00:04;;;;;;;6.57;3.75;;;5.70;99.90;;;;;;4992386;28;20035;-41
2020/12/04 01:02:30;;;;;;;13.52;6.70;;;5.80;99.90;;;;;;4996512;28;20065;-42
2020/12/04 01:04:55;;;;;;;12.93;6.28;;;5.80;99.90;;;;;;4996042;28;20118;-43
2020/12/04 01:07:21;;;;;;;13.90;5.32;;;5.70;99.90;;;;;;4999245;28;20029;-40
2020/12/04 01:09:47;;;;;;;9.73;4.97;;;5.70;99.90;;;;;;4992445;28;20049;-41
2020/12/04 01:12:13;;;;;;;13.23;7.50;;;5.70;99.90;;;;;;4990566;28;20464;-43
2020/12/04 01:14:39;;;;;;;10.80;5.63;;;5.70;99.90;;;;;;4991452;28;20018;-40
2020/12/04 01:17:05;;;;;;;10.30;5.30;;;5.70;99.90;;;;;;4992259;28;20387;-39
2020/12/04 01:19:30;;;;;;;10.63;5.20;;;5.70;99.90;;;;;;4990963;28;20026;-41
2020/12/04 01:21:56;;;;;;;9.50;5.65;;;5.80;99.90;;;;;;5004999;28;20027;-40
2020/12/04 01:24:22;;;;;;;10.85;5.80;;;5.70;99.90;;;;;;4993987;28;20030;-39
2020/12/04 01:26:47;;;;;;;10.68;5.75;;;5.70;99.90;;;;;;4995963;28;20026;-40
2020/12/04 01:29:13;;;;;;;13.23;6.82;;;5.70;99.90;;;;;;5004313;28;20455;-41
2020/12/04 01:31:38;;;;;;;12.23;5.85;;;5.60;99.90;;;;;;5000403;28;20042;-39
2020/12/04 01:34:04;;;;;;;10.85;6.00;;;5.70;99.90;;;;;;4976366;28;20046;-37
2020/12/04 01:36:30;;;;;;;9.57;5.03;;;5.70;99.90;;;;;;4995674;28;20030;-38
2020/12/04 01:38:56;;;;;;;10.90;6.35;;;5.70;99.90;;;;;;4996184;28;20380;-46
2020/12/04 01:41:22;;;;;;;9.85;6.35;;;5.70;99.90;;;;;;4994986;28;20439;-41
2020/12/04 01:43:48;;;;;;;9.30;4.90;;;5.70;99.90;;;;;;5014804;28;20145;-42
2020/12/04 01:46:14;;;;;;;7.18;4.43;;;5.70;99.90;;;;;;4994730;28;20033;-45
2020/12/04 01:48:40;;;;;;;9.25;5.72;;;5.70;99.90;;;;;;4996858;28;20105;-40
2020/12/04 01:51:06;;;;;;;8.32;3.88;;;5.70;99.90;;;;;;4994746;28;20073;-38
2020/12/04 01:53:32;;;;;;;8.32;4.30;;;5.70;99.90;;;;;;4999313;28;20050;-43
2020/12/04 01:55:58;;;;;;;7.10;3.33;;;5.70;99.90;;;;;;4995978;28;20113;-40
2020/12/04 01:58:24;;;;;;;6.82;3.83;;;5.80;99.90;;;;;;4995442;28;20121;-39
2020/12/04 02:00:49;;;;;;;8.40;4.30;;;5.80;99.90;;;;;;4994839;28;20434;-40
2020/12/04 02:03:15;;;;;;;9.75;3.50;;;5.80;99.90;;;;;;4992344;28;20045;-41
2020/12/04 02:05:57;;;;;;;10.70;4.20;;;5.80;99.90;;;;;;4994570;28;20042;-43
2020/12/04 02:08:33;;;;;;;7.20;2.85;;;5.80;99.90;;;;;;4994439;28;20092;-40
2020/12/04 02:11:21;;;;;;;7.85;4.03;;;5.80;99.90;;;;;;4992915;28;20042;-39
2020/12/04 02:13:48;;;;;;;7.93;4.70;;;5.80;99.90;;;;;;4993110;28;20121;-40
2020/12/04 02:16:19;;;;;;;8.02;4.53;;;5.80;99.90;;;;;;4993612;28;20030;-39
2020/12/04 02:18:44;;;;;;;8.60;4.55;;;5.80;99.90;;;;;;5004792;28;20029;-38
2020/12/04 02:21:11;;;;;;;10.98;4.63;;;5.80;99.90;;;;;;4994132;28;20030;-40
2020/12/04 02:23:39;;;;;;;8.60;5.00;;;5.80;99.90;;;;;;5000385;28;20076;-39
2020/12/04 02:26:07;;;;;;;6.85;3.92;;;5.80;99.90;;;;;;5000663;28;20041;-37
2020/12/04 02:28:34;;;;;;;9.30;5.32;;;5.80;99.90;;;;;;5002926;28;20037;-40
2020/12/04 02:31:01;;;;;;;5.43;2.40;;;5.80;99.90;;;;;;4970529;28;20034;-41
2020/12/04 02:33:27;;;;;;;10.27;5.63;;;5.80;99.90;;;;;;4996134;28;20101;-42
2020/12/04 02:35:52;;;;;;;8.95;4.65;;;5.80;99.90;;;;;;4995805;28;20537;-38
2020/12/04 02:38:18;;;;;;;8.93;5.43;;;5.80;99.90;;;;;;5001193;28;20038;-44
2020/12/04 02:40:43;;;;;;;10.52;6.13;;;5.80;99.90;;;;;;5002684;28;20411;-41
2020/12/04 02:43:09;;;;;;;7.15;4.15;;;5.90;99.90;;;;;;4992960;28;20038;-41
2020/12/04 02:45:35;;;;;;;12.25;5.68;;;5.90;99.90;;;;;;5003971;28;20360;-39
2020/12/04 02:48:00;;;;;;;7.75;4.20;;;5.90;99.90;;;;;;4992607;28;20173;-39
2020/12/04 02:50:26;;;;;;;10.65;6.05;;;5.90;99.90;;;;;;4994399;28;20424;-40
2020/12/04 02:52:52;;;;;;;4.90;2.65;;;5.90;99.90;;;;;;4997329;28;20077;-42
2020/12/04 02:55:17;;;;;;;4.85;2.65;;;5.90;99.90;;;;;;4997646;28;20105;-39
2020/12/04 02:57:43;;;;;;;7.97;4.35;;;5.90;99.90;;;;;;4996815;28;20522;-40
2020/12/04 03:00:09;;;;;;;9.98;5.90;;;5.90;99.90;;;;;;4999630;28;20104;-38
2020/12/04 03:02:34;;;;;;;9.73;6.07;;;5.90;99.90;;;;;;4981239;28;20041;-40
2020/12/04 03:05:00;;;;;;;10.45;5.82;;;5.90;99.90;;;;;;4979888;28;20076;-41
2020/12/04 03:07:26;;;;;;;8.55;5.25;;;5.90;99.90;;;;;;4993897;28;20045;-42
2020/12/04 03:09:51;;;;;;;9.93;6.05;;;6.00;99.90;;;;;;4997203;28;20049;-39
2020/12/04 03:12:17;;;;;;;11.55;4.88;;;6.00;99.90;;;;;;4992765;28;20093;-40
2020/12/04 03:14:43;;;;;;;10.00;5.13;;;6.00;99.90;;;;;;4995774;28;20068;-39
2020/12/04 03:17:08;;;;;;;13.23;5.90;;;6.10;99.90;;;;;;4994831;28;20070;-40
2020/12/04 03:19:34;;;;;;;5.15;3.13;;;6.10;99.90;;;;;;5009944;28;20022;-42
2020/12/04 03:21:59;;;;;;;12.68;5.53;;;6.20;99.90;;;;;;4997607;28;20042;-39
2020/12/04 03:24:25;;;;;;;9.48;4.97;;;6.20;99.90;;;;;;4994875;28;20041;-44
2020/12/04 03:26:50;;;;;;;9.93;5.13;;;6.30;99.90;;;;;;4995487;28;20031;-39
2020/12/04 03:29:16;;;;;;;9.07;5.50;;;6.30;99.90;;;;;;5003621;28;20113;-39
2020/12/04 03:31:42;;;;;;;10.35;4.63;;;6.40;99.90;;;;;;4992934;28;20061;-40
2020/12/04 03:34:07;;;;;;;9.73;3.35;;;6.40;99.90;;;;;;4993904;28;20545;-40
2020/12/04 03:36:33;;;;;;;7.15;3.10;;;6.50;99.90;;;;;;5000978;28;20113;-40
2020/12/04 03:38:58;;;;;;;8.90;3.88;;;6.50;99.90;;;;;;4980165;28;20562;-40
2020/12/04 03:41:24;;;;;;;6.30;2.63;;;6.50;99.90;;;;;;4992762;28;20448;-43
2020/12/04 03:43:50;;;;;;;7.68;3.28;;;6.50;99.90;;;;;;4989214;28;20105;-40
2020/12/04 03:46:16;;;;;;;6.85;2.70;;;6.60;99.90;;;;;;5003625;28;20037;-38
2020/12/04 03:48:42;;;;;;;5.25;2.83;;;6.60;99.90;;;;;;5004314;28;20109;-41
2020/12/04 03:51:08;;;;;;;5.40;2.45;;;6.60;99.90;;;;;;5007168;28;20056;-41
2020/12/04 03:53:33;;;;;;;6.13;2.58;;;6.70;99.90;;;;;;5008094;28;20027;-40
2020/12/04 03:55:59;;;;;;;5.10;2.60;;;6.60;99.90;;;;;;4993432;28;20026;-38
2020/12/04 03:58:25;;;;;;;4.03;1.55;;;6.60;99.90;;;;;;4992376;28;20034;-40
2020/12/04 04:00:51;;;;;;;5.93;2.03;;;6.60;99.90;;;;;;4973693;28;20073;-41
2020/12/04 04:03:16;;;;;;;2.03;0.88;;;6.60;99.90;;;;;;4990976;28;20034;-39
2020/12/04 04:05:42;;;;;;;5.82;1.45;;;6.60;99.90;;;;;;4993640;28;20030;-40
2020/12/04 04:08:08;;;;;;;5.82;1.40;;;6.60;99.90;;;;;;4993348;28;20034;-40
2020/12/04 04:10:33;;;;;;;2.38;1.08;;;6.60;99.90;;;;;;4992555;28;20448;-40
2020/12/04 04:12:59;;;;;;;1.08;0.57;;;6.60;99.90;;;;;;4991736;28;20030;-39
2020/12/04 04:15:24;;;;;;;2.88;1.20;;;6.60;99.90;;;;;;4992524;28;20022;-40
2020/12/04 04:17:50;;;;;;;3.38;0.60;;;6.60;99.90;;;;;;4991824;28;20031;-42
2020/12/04 04:20:16;;;;;;;0.80;0.55;;;6.60;99.90;;;;;;4992823;28;20101;-40
2020/12/04 04:22:41;;;;;;;1.00;0.40;;;6.60;99.90;;;;;;4992791;28;20551;-40
2020/12/04 04:25:07;;;;;;;1.45;0.60;;;6.60;99.90;;;;;;4993382;28;20101;-39
2020/12/04 04:27:32;;;;;;;5.05;0.68;;;6.60;99.90;;;;;;4976596;28;20038;-37
2020/12/04 04:29:58;;;;;;;2.45;0.70;;;6.60;99.90;;;;;;4992542;28;20053;-41
2020/12/04 04:32:23;;;;;;;1.05;0.52;;;6.70;99.90;;;;;;4993043;28;20113;-39
2020/12/04 04:34:49;;;;;;;2.63;0.50;;;6.70;99.90;;;;;;4992574;28;20058;-40
2020/12/04 04:37:15;;;;;;;1.50;0.50;;;6.80;99.90;;;;;;4993100;28;20023;-40
2020/12/04 04:39:43;;;;;;;1.52;0.52;;;6.80;99.90;;;;;;4994383;28;20034;-40
2020/12/04 04:42:09;;;;;;;1.85;0.70;;;6.80;99.90;;;;;;4992147;28;20030;-40
2020/12/04 04:44:35;;;;;;;3.38;0.80;;;6.90;99.90;;;;;;4991128;28;20532;-40
2020/12/04 04:47:05;;;;;;;3.83;0.73;;;6.90;99.90;;;;;;4992105;28;20022;-40
2020/12/04 04:49:36;;;;;;;3.92;0.85;;;6.90;99.90;;;;;;4992063;28;20493;-39
2020/12/04 04:52:05;;;;;;;3.22;0.60;;;6.90;99.90;;;;;;4992950;28;20037;-39
2020/12/04 04:54:34;;;;;;;1.55;0.68;;;7.00;99.90;;;;;;4991005;28;20030;-39
2020/12/04 04:57:01;;;;;;;3.05;0.65;;;6.90;99.90;;;;;;4993120;28;20027;-39
2020/12/04 04:59:27;;;;;;;1.60;0.47;;;6.90;99.90;;;;;;4994936;28;20487;-40
2020/12/04 05:01:52;;;;;;;2.67;0.40;;;6.90;99.90;;;;;;4992436;28;20038;-39
2020/12/04 05:04:18;;;;;;;7.28;0.60;;;6.90;99.90;;;;;;4992215;28;20384;-44
2020/12/04 05:06:44;;;;;;;1.88;0.68;;;6.90;99.90;;;;;;4991000;28;20076;-42
2020/12/04 05:09:20;;;;;;;1.42;0.40;;;6.90;99.90;;;;;;4988503;28;20042;-40
2020/12/04 05:11:57;;;;;;;0.55;0.22;;;6.80;99.90;;;;;;4992509;28;20117;-39
2020/12/04 05:14:24;;;;;;;2.50;0.20;;;6.60;99.90;;;;;;4989166;28;20081;-40
2020/12/04 05:16:57;;;;;;;0.90;0.20;;;6.50;99.90;;;;;;4991696;28;20112;-40
2020/12/04 05:19:37;;;;;;;4.38;0.40;;;6.40;99.90;;;;;;4996423;28;20072;-40
2020/12/04 05:22:18;;;;;;;3.85;0.25;;;6.40;99.90;;;;;;4996072;28;20033;-39
2020/12/04 05:24:45;;;;;;;1.23;0.32;;;6.40;99.90;;;;;;4991357;28;20522;-40
2020/12/04 05:27:23;;;;;;;0.15;0.03;;;6.30;99.90;;;;;;4990278;28;20500;-41
2020/12/04 05:29:51;;;;;;;1.05;0.30;;;6.30;99.90;;;;;;5003815;28;20022;-40
2020/12/04 05:32:17;;;;;;;1.70;0.38;;;6.20;99.90;;;;;;4990538;28;20494;-40
2020/12/04 05:34:43;;;;;;;0.13;0.10;;;6.20;99.90;;;;;;5007811;28;20039;-40
2020/12/04 05:37:10;;;;;;;0.57;0.28;;;6.10;99.90;;;;;;4993151;28;20034;-42
2020/12/04 05:39:48;;;;;;;0.85;0.30;;;6.00;99.90;;;;;;4993571;28;20088;-39
2020/12/04 05:42:29;;;;;;;0.77;0.25;;;6.10;99.90;;;;;;4973714;28;20096;-39
2020/12/04 05:44:55;;;;;;;1.33;0.47;;;6.10;99.90;;;;;;4986726;28;20035;-41
2020/12/04 05:47:33;;;;;;;1.00;0.40;;;6.20;99.90;;;;;;4974916;28;20038;-39
2020/12/04 05:49:59;;;;;;;0.73;0.40;;;6.20;99.90;;;;;;4992100;28;20070;-41
2020/12/04 05:52:25;;;;;;;1.77;0.20;;;6.10;99.90;;;;;;4997809;28;20041;-39
2020/12/04 05:54:51;;;;;;;5.60;0.60;;;6.10;99.90;;;;;;4995764;28;20027;-40
2020/12/04 05:57:19;;;;;;;1.00;0.30;;;6.10;99.90;;;;;;5006244;28;20034;-40
2020/12/04 05:59:46;;;;;;;0.65;0.30;;;6.10;99.90;;;;;;4991065;28;20034;-44
2020/12/04 06:02:15;;;;;;;0.22;0.20;;;6.10;99.90;;;;;;4990659;28;20080;-38
2020/12/04 06:04:42;;;;;;;0.50;0.20;;;6.10;99.90;;;;;;4990885;28;20099;-41
2020/12/04 06:07:12;;;;;;;0.52;0.17;;;6.10;99.90;;;;;;4992416;28;20382;-40
2020/12/04 06:09:40;;;;;;;0.65;0.30;;;6.10;99.90;;;;;;5003095;28;20095;-39
2020/12/04 06:12:11;;;;;;;1.45;0.45;;;6.10;99.90;;;;;;4993358;28;20553;-39
2020/12/04 06:14:37;;;;;;;0.40;0.32;;;6.10;99.90;;;;;;4993574;28;20023;-39
2020/12/04 06:17:03;;;;;;;1.65;0.55;;;6.10;99.90;;;;;;4994047;28;20038;-39
2020/12/04 06:19:36;;;;;;;3.20;0.52;;;6.10;99.90;;;;;;4996112;28;20045;-41
2020/12/04 06:22:19;;;;;;;0.60;0.47;;;6.00;99.90;;;;;;4971122;28;20061;-41
2020/12/04 06:24:54;;;;;;;0.73;0.20;;;6.00;99.90;;;;;;4994631;28;20483;-40
2020/12/04 06:27:39;;;;;;;2.15;0.75;;;6.00;99.90;;;;;;4990151;28;20031;-40
2020/12/04 06:30:06;;;;;;;1.13;0.50;;;5.90;99.90;;;;;;4994718;28;20033;-40
2020/12/04 06:32:44;;;;;;;0.38;0.30;;;5.90;99.90;;;;;;4991992;28;20038;-40
2020/12/04 06:35:11;;;;;;;0.85;0.40;;;5.90;99.90;;;;;;4966921;28;20041;-40
2020/12/04 06:37:42;;;;;;;1.75;0.40;;;5.90;99.90;;;;;;4976831;28;20050;-44
2020/12/04 06:40:30;;;;;;;1.27;0.55;;;5.90;99.90;;;;;;4994266;28;20065;-40
2020/12/04 06:42:59;;;;;;;1.67;0.50;;;5.90;99.90;;;;;;4993433;28;20049;-41
2020/12/04 06:45:48;;;;;;;0.93;0.40;;;5.90;99.90;;;;;;4994231;28;20113;-40
2020/12/04 06:48:15;;;;;;;0.38;0.38;;;5.90;99.90;;;;;;4996635;28;20054;-41
2020/12/04 06:50:46;;;;;;;1.23;0.60;;;5.80;99.90;;;;;;4995013;28;20026;-40
2020/12/04 06:53:14;;;;;;;0.82;0.57;;;5.80;99.90;;;;;;4994804;28;20038;-43
2020/12/04 06:55:41;;;;;;;4.63;0.75;;;5.80;99.90;;;;;;4994380;28;20024;-41
2020/12/04 06:58:07;;;;;;;1.98;1.05;;;5.80;99.90;;;;;;4994039;28;20027;-40
2020/12/04 07:00:34;;;;;;;1.02;0.50;;;5.70;99.90;;;;;;4994447;28;20022;-41
2020/12/04 07:03:00;;;;;;;0.63;0.40;;;5.70;99.90;;;;;;4994396;28;20042;-42
2020/12/04 07:05:27;;;;;;;1.27;0.80;;;5.70;99.90;;;;;;4994983;28;20468;-39
2020/12/04 07:08:22;;;;;;;1.75;0.88;;;5.70;99.90;;;;;;5009575;28;20040;-43
2020/12/04 07:10:55;;;;;;;0.32;0.30;;;5.70;99.90;;;;;;4991620;28;20542;-39
2020/12/04 07:13:22;;;;;;;0.75;0.40;;;5.70;99.90;;;;;;4991048;28;20324;-42
2020/12/04 07:15:47;;;;;;;5.13;0.80;;;5.60;99.90;;;;;;4992156;28;20065;-40
2020/12/04 07:18:13;;;;;;;3.50;1.20;;;5.60;99.90;;;;;;4990192;28;20395;-42
2020/12/04 07:20:38;;;;;;;0.75;0.40;;;5.70;99.90;;;;;;4991389;28;20081;-39
2020/12/04 07:23:08;;;;;;;7.47;1.77;;;5.70;99.90;;;;;;4976145;28;20050;-47
2020/12/04 07:25:35;;;;;;;4.00;1.30;;;5.70;99.90;;;;;;4991309;28;20081;-41
2020/12/04 07:28:02;;;;;;;3.88;1.17;;;5.70;99.90;;;;;;4990694;28;20077;-41
2020/12/04 07:30:29;;;;;;;1.38;0.80;;;5.60;99.90;;;;;;4991138;28;20031;-42
2020/12/04 07:32:55;;;;;;;1.70;0.70;;;5.60;99.90;;;;;;4990346;28;20100;-41
2020/12/04 07:35:23;;;;;;;0.77;0.50;;;5.60;99.90;;;;;;4991716;28;20554;-44
2020/12/04 07:37:49;;;;;;;3.55;1.23;;;5.60;99.90;;;;;;4989208;28;20034;-41
2020/12/04 07:40:16;;;;;;;4.88;0.75;;;5.60;99.90;;;;;;4996990;28;20531;-41
2020/12/04 07:42:42;;;;;;;2.83;1.15;;;5.60;99.90;;;;;;4974074;28;20042;-38
2020/12/04 07:45:16;;;;;;;2.28;1.10;;;5.60;99.90;;;;;;4994399;28;20403;-40
2020/12/04 07:47:42;;;;;;;1.73;0.77;;;5.60;99.90;;;;;;4992245;28;20494;-39
2020/12/04 07:50:11;;;;;;;2.45;1.10;;;5.60;99.90;;;;;;4994423;28;20109;-41
2020/12/04 07:52:49;;;;;;;1.15;0.80;;;5.60;99.90;;;;;;4993504;28;20513;-45
2020/12/04 07:55:17;;;;;;;1.90;0.90;;;5.60;99.90;;;;;;4993979;28;20023;-43
2020/12/04 07:57:42;;;;;;;4.90;0.60;;;5.60;99.90;;;;;;4992946;28;20081;-41
2020/12/04 08:00:08;;;;;;;1.33;0.68;;;5.60;99.90;;;;;;4985629;28;20031;-39
2020/12/04 08:02:34;;;;;;;3.88;0.90;;;5.60;99.90;;;;;;4978748;28;20360;-43
2020/12/04 08:05:00;;;;;;;4.05;1.65;;;5.60;99.90;;;;;;4993295;28;20061;-47
2020/12/04 08:07:30;;;;;;;2.38;1.00;;;5.60;99.90;;;;;;4993210;28;20034;-42
2020/12/04 08:09:56;;;;;;;1.15;0.73;;;5.60;99.90;;;;;;4994026;28;20050;-40
2020/12/04 08:12:33;;;;;;;5.13;1.08;;;5.60;99.90;;;;;;4993397;28;20460;-40
2020/12/04 08:15:01;;;;;;;6.15;1.30;;;5.60;99.90;;;;;;4993501;28;20034;-41
2020/12/04 08:17:28;;;;;;;3.88;1.60;;;5.60;99.90;;;;;;4991568;28;20034;-40
2020/12/04 08:19:55;;;;;;;2.72;1.55;;;5.60;99.90;;;;;;4992861;28;20030;-39
2020/12/04 08:22:34;;;;;;;6.55;2.33;;;5.60;99.90;;;;;;4991874;28;20034;-42
2020/12/04 08:25:06;;;;;;;2.38;1.10;;;5.70;99.90;;;;;;4976024;28;20089;-44
2020/12/04 08:27:46;;;;;;;0.90;0.52;;;5.70;99.90;;;;;;4973837;28;20019;-44
2020/12/04 08:30:17;;;;;;;3.15;1.50;;;5.70;99.90;;;;;;4992988;28;21173;-42
2020/12/04 08:32:43;;;;;;;3.63;0.98;;;5.70;99.90;;;;;;5011561;28;20056;-41
2020/12/04 08:35:24;;;;;;;2.92;1.50;;;5.70;99.90;;;;;;5001458;28;20027;-37
2020/12/04 08:37:51;;;;;;;1.92;1.05;;;5.70;99.90;;;;;;4984655;28;20108;-37
2020/12/04 08:40:28;;;;;;;4.30;3.33;;;5.70;99.90;;;;;;4990171;28;20031;-39
2020/12/04 08:43:12;;;;;;;3.55;1.75;;;5.80;99.90;;;;;;4975581;28;20124;-44
2020/12/04 08:45:44;;;;;;;5.68;2.22;;;5.80;99.90;;;;;;4982535;28;20129;-42
2020/12/04 08:48:16;;;;;;;6.70;2.47;;;5.80;99.90;;;;;;4982841;28;20023;-40
2020/12/04 08:50:52;;;;;;;3.13;1.88;;;5.80;99.90;;;;;;4981455;28;20034;-39
2020/12/04 08:53:20;;;;;;;3.15;1.58;;;5.70;99.90;;;;;;4981342;28;20511;-41
2020/12/04 08:55:50;;;;;;;4.15;2.25;;;5.80;99.90;;;;;;4981947;28;20050;-41
2020/12/04 08:58:18;;;;;;;3.22;1.77;;;5.80;99.90;;;;;;4990759;28;20026;-43
2020/12/04 09:00:45;;;;;;;4.40;2.03;;;5.90;99.90;;;;;;4990600;28;20482;-41
2020/12/04 09:06:32;;;;;;;6.90;1.77;;;5.90;99.90;;;;;;4985679;28;20116;-44
2020/12/04 09:08:57;;;;;;;5.15;2.35;;;5.90;99.90;;;;;;4989221;28;20038;-41
2020/12/04 09:11:23;;;;;;;3.92;1.48;;;5.90;99.90;;;;;;4991444;28;20426;-39
2020/12/04 09:13:48;;;;;;;3.40;1.60;;;6.00;99.90;;;;;;4991725;28;20038;-39
2020/12/04 09:16:14;;;;;;;2.80;1.55;;;6.00;99.90;;;;;;4990960;28;20060;-41
2020/12/04 09:18:39;;;;;;;4.18;1.15;;;6.00;99.90;;;;;;4991084;28;20515;-42
2020/12/04 09:21:05;;;;;;;2.55;0.80;;;6.00;99.90;;;;;;4991456;28;20038;-38
2020/12/04 09:23:33;;;;;;;4.57;1.52;;;6.10;99.90;;;;;;4991567;28;20038;-41
2020/12/04 09:25:59;;;;;;;5.55;1.48;;;6.10;99.90;;;;;;4991478;28;20037;-41
2020/12/04 09:28:24;;;;;;;4.28;1.20;;;6.10;99.90;;;;;;4980082;28;20030;-41
2020/12/04 09:30:50;;;;;;;2.75;1.27;;;6.10;99.90;;;;;;4989571;28;20231;-44
2020/12/04 09:33:15;;;;;;;4.80;1.27;;;6.20;99.90;;;;;;4989678;28;20129;-42
2020/12/04 09:35:41;;;;;;;8.82;2.10;;;6.10;99.90;;;;;;5006599;28;20045;-40
2020/12/04 09:38:07;;;;;;;4.30;1.35;;;6.10;99.90;;;;;;4989273;28;20038;-42
2020/12/04 09:40:33;;;;;;;3.83;1.27;;;6.10;99.90;;;;;;4991184;28;20027;-43
2020/12/04 09:42:58;;;;;;;4.20;1.42;;;6.10;99.90;;;;;;4994018;28;20069;-44
2020/12/04 09:45:24;;;;;;;3.75;1.52;;;6.10;99.90;;;;;;4994072;28;20030;-41
2020/12/04 09:47:49;;;;;;;8.25;2.10;;;6.20;99.90;;;;;;4994637;28;20172;-41
2020/12/04 09:50:15;;;;;;;1.45;0.70;;;6.20;99.90;;;;;;4987862;28;20030;-40
2020/12/04 09:52:41;;;;;;;2.95;1.27;;;6.20;99.90;;;;;;4987477;28;20026;-42
2020/12/04 09:55:26;;;;;;;2.60;1.13;;;6.20;99.90;;;;;;4987224;28;20022;-41
2020/12/04 09:57:51;;;;;;;5.90;1.70;;;6.20;99.90;;;;;;4988136;28;20034;-40
2020/12/04 10:00:17;;;;;;;3.15;1.20;;;6.20;99.90;;;;;;5004906;28;20135;-39
2020/12/04 10:02:42;;;;;;;4.45;1.38;;;6.20;99.90;;;;;;5002140;28;22035;-41
2020/12/04 10:05:08;;;;;;;5.75;1.77;;;6.10;99.90;;;;;;4988051;28;20030;-36
2020/12/04 10:07:34;;;;;;;4.55;1.58;;;6.10;99.90;;;;;;4987578;28;20085;-39
2020/12/04 10:09:59;;;;;;;3.15;1.25;;;6.10;99.90;;;;;;4988353;28;20065;-41
2020/12/04 10:12:25;;;;;;;2.15;0.90;;;6.10;99.90;;;;;;4987240;28;20034;-40
2020/12/04 10:14:50;;;;;;;3.90;0.77;;;6.10;99.90;;;;;;4987669;28;20376;-36
2020/12/04 10:17:16;;;;;;;3.10;1.17;;;6.10;99.90;;;;;;4988399;28;20621;-39
2020/12/04 10:19:43;;;;;;;4.10;1.60;;;6.10;99.90;;;;;;4993390;28;20042;-40
2020/12/04 10:22:09;;;;;;;5.00;1.98;;;6.10;99.90;;;;;;4995063;28;20038;-39
2020/12/04 10:24:34;;;;;;;2.30;0.95;;;6.10;99.90;;;;;;4990009;28;20111;-38
2020/12/04 10:27:00;;;;;;;2.35;0.82;;;6.10;99.90;;;;;;4986972;28;20089;-40
2020/12/04 10:29:26;;;;;;;2.10;1.27;;;6.00;99.90;;;;;;4988587;28;20478;-39
2020/12/04 10:31:51;;;;;;;2.50;1.10;;;6.00;99.90;;;;;;4987066;28;20517;-39
2020/12/04 10:34:17;;;;;;;2.78;0.82;;;6.00;99.90;;;;;;4987015;28;20112;-40
2020/12/04 10:36:44;;;;;;;3.65;1.60;;;6.00;99.90;;;;;;4965887;28;20089;-41
2020/12/04 10:42:31;;;;;;;3.92;0.85;;;6.10;99.90;;;;;;4985580;28;20030;-39
2020/12/04 10:44:57;;;;;;;2.80;1.35;;;6.10;99.90;;;;;;4987486;28;20488;-41
2020/12/04 10:47:22;;;;;;;3.28;1.23;;;6.10;99.90;;;;;;4988423;28;20061;-41
2020/12/04 10:49:48;;;;;;;1.90;0.70;;;6.10;99.90;;;;;;4991795;28;20109;-42
2020/12/04 10:52:14;;;;;;;2.65;1.23;;;6.10;99.90;;;;;;4993625;28;20372;-41
2020/12/04 11:14:51;;;;;;;1.77;1.02;;;6.20;99.90;;;;;;4987037;28;20064;-42
2020/12/04 11:17:16;;;;;;;3.83;1.30;;;6.20;99.90;;;;;;5000510;28;20030;-42
2020/12/04 11:19:42;;;;;;;6.15;1.08;;;6.20;99.90;;;;;;4990638;28;20482;-40
2020/12/04 11:22:08;;;;;;;1.50;0.68;;;6.20;99.90;;;;;;4985732;28;20026;-42
2020/12/04 11:24:33;;;;;;;2.17;1.00;;;6.20;99.90;;;;;;4986629;28;20498;-45
2020/12/04 11:26:59;;;;;;;2.88;1.27;;;6.20;99.90;;;;;;4999948;28;20427;-45
2020/12/04 11:29:26;;;;;;;4.72;1.40;;;6.20;99.90;;;;;;4988694;28;20066;-45
2020/12/04 11:31:51;;;;;;;4.68;1.33;;;6.20;99.90;;;;;;5001345;28;20038;-44
2020/12/04 11:34:17;;;;;;;2.53;0.80;;;6.20;99.90;;;;;;4984634;28;20057;-42
2020/12/04 11:36:42;;;;;;;3.67;1.05;;;6.20;99.90;;;;;;4985108;28;20034;-41
2020/12/04 11:39:08;;;;;;;4.68;0.98;;;6.30;99.90;;;;;;5005470;28;20052;-48
2020/12/04 11:41:33;;;;;;;2.70;0.50;;;6.30;99.90;;;;;;4992860;28;20038;-43
2020/12/04 11:43:59;;;;;;;0.73;0.40;;;6.30;99.90;;;;;;4992612;28;20034;-41
2020/12/04 11:46:25;;;;;;;2.38;0.98;;;6.30;99.90;;;;;;4992581;28;20513;-40
2020/12/04 11:48:51;;;;;;;1.83;0.77;;;6.40;99.90;;;;;;4974384;28;20097;-42
2020/12/04 11:51:16;;;;;;;2.33;0.85;;;6.40;99.90;;;;;;5002330;28;20052;-44
2020/12/04 11:53:42;;;;;;;1.48;0.57;;;6.40;99.90;;;;;;5004842;28;20106;-42
2020/12/04 11:56:07;;;;;;;2.65;0.50;;;6.30;99.90;;;;;;4992659;28;20030;-41
2020/12/04 11:58:33;;;;;;;1.95;0.68;;;6.30;99.90;;;;;;4996650;28;20542;-40
2020/12/04 12:00:58;;;;;;;1.17;0.68;;;6.40;99.90;;;;;;4996930;28;20049;-41
2020/12/04 12:03:24;;;;;;;1.50;0.70;;;6.30;99.90;;;;;;4989369;28;20046;-41
2020/12/04 12:05:50;;;;;;;4.70;0.80;;;6.30;99.90;;;;;;4994282;28;20019;-47
2020/12/04 12:08:15;;;;;;;1.60;0.52;;;6.30;99.90;;;;;;4992071;28;20431;-41
2020/12/04 12:10:41;;;;;;;0.75;0.35;;;6.30;99.90;;;;;;5007712;28;20507;-44
2020/12/04 12:13:06;;;;;;;2.80;0.77;;;6.20;99.90;;;;;;4993688;28;20376;-40
2020/12/04 12:15:32;;;;;;;0.95;0.50;;;6.30;99.90;;;;;;4997905;28;20034;-40
2020/12/04 12:17:57;;;;;;;0.90;0.38;;;6.20;99.90;;;;;;4990346;28;20045;-45
2020/12/04 12:20:23;;;;;;;2.22;0.77;;;6.20;99.90;;;;;;5018188;28;20034;-34
2020/12/04 12:22:49;;;;;;;1.13;0.50;;;6.20;99.90;;;;;;4987725;28;20043;-39
2020/12/04 12:25:15;;;;;;;3.05;0.70;;;6.20;99.90;;;;;;5002365;28;20515;-43
2020/12/04 12:27:42;;;;;;;1.70;0.52;;;6.20;99.90;;;;;;5004813;28;20554;-47
2020/12/04 12:30:08;;;;;;;0.85;0.40;;;6.20;99.90;;;;;;5007598;28;20484;-42
2020/12/04 12:32:34;;;;;;;1.30;0.40;;;6.20;99.90;;;;;;4991005;28;20049;-41
2020/12/04 12:35:05;;;;;;;2.10;0.68;;;6.20;99.90;;;;;;4975896;28;20053;-43
2020/12/04 12:37:31;;;;;;;0.35;0.20;;;6.20;99.90;;;;;;4991808;28;20392;-42
2020/12/04 12:40:02;;;;;;;0.17;0.17;;;6.20;99.90;;;;;;4974188;28;20037;-42
2020/12/04 12:42:28;;;;;;;2.50;0.95;;;6.20;99.90;;;;;;4990435;28;20038;-43
2020/12/04 12:44:54;;;;;;;2.13;0.68;;;6.10;99.90;;;;;;4988439;28;20057;-42
2020/12/04 12:47:21;;;;;;;3.47;0.73;;;6.10;99.90;;;;;;4991102;28;20129;-42
2020/12/04 12:49:47;;;;;;;5.22;0.65;;;6.00;99.90;;;;;;4973911;28;20174;-41
2020/12/04 12:52:13;;;;;;;3.55;0.80;;;6.00;99.90;;;;;;4973227;28;20071;-40
2020/12/04 12:54:39;;;;;;;1.38;0.40;;;6.00;99.90;;;;;;4991567;28;20052;-41
2020/12/04 12:57:05;;;;;;;4.38;0.50;;;6.00;99.90;;;;;;4991798;28;20030;-44
2020/12/04 12:59:31;;;;;;;5.50;0.75;;;6.00;99.90;;;;;;4989978;28;20030;-41
2020/12/04 13:01:56;;;;;;;0.80;0.30;;;6.10;99.90;;;;;;4995603;28;20038;-41
2020/12/04 13:04:23;;;;;;;2.00;0.75;;;6.00;99.90;;;;;;4991458;28;20101;-42
2020/12/04 13:06:50;;;;;;;2.47;0.70;;;6.00;99.90;;;;;;4973475;28;20026;-41
2020/12/04 13:09:15;;;;;;;3.47;0.40;;;6.00;99.90;;;;;;5000560;28;20474;-41
2020/12/04 13:11:41;;;;;;;2.67;0.50;;;6.00;99.90;;;;;;5010688;28;20045;-41
2020/12/04 13:14:07;;;;;;;0.60;0.30;;;6.00;99.90;;;;;;4975273;28;20586;-40
2020/12/04 13:16:36;;;;;;;1.58;0.40;;;6.10;99.90;;;;;;5005528;28;20383;-39
2020/12/04 13:19:02;;;;;;;0.73;0.30;;;6.10;99.90;;;;;;5005680;28;20066;-39
2020/12/04 13:24:12;;;;;;;0.32;0.17;;;6.20;99.90;;;;;;4992096;28;20407;-39
2020/12/04 13:26:38;;;;;;;4.38;0.77;;;6.20;99.90;;;;;;4990961;28;20143;-40